Howard City, MI

1:44 PM EST on December 06, 2016 (GMT -0500)
Smits Residence | | Change Station

Elev 925 ft 43.40 °N, 85.40 °W | Updated 35 seconds ago

Overcast
Overcast
36.7 °F
Feels Like 37 °F
N
3.0
Wind Variable Wind from ENE

Today
High -- | Low -- °F
--% Chance of Precip.
Yesterday
High -- | Low -- °F
Precip. -- in
Pressure 29.72 in
Visibility 10.0 miles
Clouds Overcast 1300 ft
Windchill 37 °F
Dew Point 33 °F
Humidity 88%
Rainfall 0.00 in
Snow Depth Not available.
8:00 AM 5:05 PM
Waxing Crescent, 44% visible
METAR KRQB 061834Z AUTO 14011KT 10SM OVC013 04/00 A2972 RMK AO2 T00381002
Pressure 29.72 in
Visibility 10.0 miles
Clouds Overcast 1300 ft
Windchill 37 °F
Dew Point 33 °F
Humidity 88%
Rainfall 0.00 in
Snow Depth Not available.
8:00 AM 5:05 PM
Waxing Crescent, 44% visible
METAR KRQB 061834Z AUTO 14011KT 10SM OVC013 04/00 A2972 RMK AO2 T00381002

10-Day Weather Forecast

Almanac

Astronomy

Dec. 06, 2016 Rise Set
Actual Time
Civil Twilight
Nautical Twilight
Astronomical Twilight
Moon
Length of Visible Light
Length of Day
Tomorrow will be .
, % of the Moon is Illuminated

Today's Extremes

State Highs State Lows

Community

WunderPhotos

Upload Photos

1,956,001 photos uploaded!

WunderBlog® & News

Nearby

Air Quality

  Air Quality AQ Index Pollutant
Not available.

Snow Depth

Station Depth Elevation

Earthquake Activity

City Distance Mag. Time & Date
Minimum magnitude displayed is 2.5.

Coastal Water Temperatures

Place Temperature

Stations

Nearby Weather Stations

Station Location Temp. Windchill Dew Point Humidity Wind Precip. Elev Updated Type
                   

Watches & Warnings

There are currently no watches in effect.